Time;durP1;ratioP1;P1;durP2;ratioP2;P2;SDS_P1;SDS_P2;PMS_P1;PMS_P2;Temp;Humidity;BMP_temperature;BMP_pressure;BME280_temperature;BME280_humidity;BME280_pressure;Samples;Min_cycle;Max_cycle;Signal;HPM_P1;HPM_P2
2022/07/14 00:01:05;;;;;;;;;;;23.60;85.30;;;;;;4997046;28;19959;-53
2022/07/14 00:03:49;;;;;;;;;;;23.60;85.00;;;;;;4997152;28;19983;-53
2022/07/14 00:06:34;;;;;;;;;;;23.60;85.00;;;;;;4994192;28;19971;-52
2022/07/14 00:09:18;;;;;;;;;;;23.60;85.50;;;;;;4977797;28;20270;-52
2022/07/14 00:12:02;;;;;;;;;;;23.70;85.20;;;;;;4976149;28;19956;-52
2022/07/14 00:14:46;;;;;;;;;;;23.60;84.70;;;;;;4994140;28;19968;-52
2022/07/14 00:17:31;;;;;;;;;;;23.50;84.40;;;;;;5004735;28;19912;-53
2022/07/14 00:20:15;;;;;;;;;;;23.40;84.70;;;;;;5004475;28;19956;-55
2022/07/14 00:23:00;;;;;;;;;;;23.40;84.80;;;;;;4994907;28;20429;-53
2022/07/14 00:25:44;;;;;;;;;;;23.20;84.60;;;;;;4996321;28;20428;-54
2022/07/14 00:28:29;;;;;;;;;;;23.10;84.80;;;;;;4995128;28;20397;-50
2022/07/14 00:31:13;;;;;;;;;;;23.20;85.10;;;;;;5007710;28;20000;-50
2022/07/14 00:33:58;;;;;;;;;;;23.10;85.20;;;;;;5013639;28;19963;-55
2022/07/14 00:36:42;;;;;;;;;;;23.00;85.10;;;;;;4993562;28;19916;-54
2022/07/14 00:39:26;;;;;;;;;;;22.90;85.20;;;;;;4995554;28;19933;-52
2022/07/14 00:42:11;;;;;;;;;;;22.90;84.60;;;;;;4975508;28;19921;-55
2022/07/14 00:44:55;;;;;;;;;;;22.90;84.60;;;;;;4994347;28;19968;-52
2022/07/14 00:47:39;;;;;;;;;;;22.90;85.20;;;;;;5008815;28;19955;-52
2022/07/14 00:50:23;;;;;;;;;;;22.90;84.90;;;;;;5000435;28;19920;-53
2022/07/14 00:53:08;;;;;;;;;;;22.90;85.00;;;;;;5014074;28;19920;-51
2022/07/14 00:55:52;;;;;;;;;;;22.90;85.30;;;;;;5011603;28;19967;-51
2022/07/14 00:58:36;;;;;;;;;;;22.90;85.30;;;;;;5026293;28;20423;-52
2022/07/14 01:01:21;;;;;;;;;;;22.90;84.80;;;;;;4981822;28;19916;-50
2022/07/14 01:04:05;;;;;;;;;;;22.80;84.20;;;;;;5013082;28;20333;-51
2022/07/14 01:06:49;;;;;;;;;;;22.70;84.10;;;;;;5000215;28;19939;-54
2022/07/14 01:09:34;;;;;;;;;;;22.80;83.90;;;;;;5011204;28;19961;-53
2022/07/14 01:12:18;;;;;;;;;;;22.60;85.00;;;;;;5013669;28;20006;-52
2022/07/14 01:15:03;;;;;;;;;;;22.50;85.80;;;;;;4992846;28;19913;-55
2022/07/14 01:17:48;;;;;;;;;;;22.40;86.50;;;;;;4997239;28;19968;-54
2022/07/14 01:20:32;;;;;;;;;;;22.40;86.70;;;;;;4994443;28;19928;-54
2022/07/14 01:23:16;;;;;;;;;;;22.20;87.40;;;;;;5006291;28;20008;-53
2022/07/14 01:26:00;;;;;;;;;;;22.20;88.00;;;;;;5012740;28;19940;-51
2022/07/14 01:28:45;;;;;;;;;;;22.00;88.50;;;;;;5011384;28;20016;-52
2022/07/14 01:31:29;;;;;;;;;;;22.00;88.40;;;;;;5007166;28;19925;-54
2022/07/14 01:34:13;;;;;;;;;;;21.90;88.50;;;;;;5003935;28;19917;-54
2022/07/14 01:36:57;;;;;;;;;;;21.70;89.70;;;;;;5003832;28;19917;-52
2022/07/14 01:39:42;;;;;;;;;;;21.60;89.90;;;;;;5007813;28;19916;-52
2022/07/14 01:42:26;;;;;;;;;;;21.60;89.80;;;;;;5011160;28;20492;-50
2022/07/14 01:45:11;;;;;;;;;;;21.50;90.00;;;;;;5010031;28;20368;-52
2022/07/14 01:47:55;;;;;;;;;;;21.40;90.20;;;;;;5014445;28;19947;-50
2022/07/14 01:50:39;;;;;;;;;;;21.20;90.50;;;;;;4974746;28;19960;-54
2022/07/14 01:53:23;;;;;;;;;;;21.10;90.70;;;;;;4979131;28;20017;-50
2022/07/14 01:56:08;;;;;;;;;;;21.30;90.50;;;;;;4997787;28;19921;-57
2022/07/14 01:58:53;;;;;;;;;;;21.40;90.30;;;;;;4992673;28;20305;-52
2022/07/14 02:01:40;;;;;;;;;;;21.40;90.30;;;;;;4994431;28;19926;-56
2022/07/14 02:04:24;;;;;;;;;;;21.50;90.20;;;;;;4993648;28;20393;-51
2022/07/14 02:07:08;;;;;;;;;;;21.30;90.60;;;;;;4994291;28;19928;-52
2022/07/14 02:13:00;;;;;;;;;;;21.30;90.60;;;;;;4977569;28;19916;-50
2022/07/14 02:15:44;;;;;;;;;;;21.40;90.50;;;;;;4999069;28;19920;-49
2022/07/14 02:18:28;;;;;;;;;;;21.40;90.50;;;;;;4997115;28;20101;-50
2022/07/14 02:21:13;;;;;;;;;;;21.50;90.30;;;;;;4997422;28;20559;-51
2022/07/14 02:23:57;;;;;;;;;;;21.40;90.50;;;;;;5015105;28;19959;-51
2022/07/14 02:26:41;;;;;;;;;;;21.40;90.40;;;;;;5012592;28;20284;-52
2022/07/14 02:29:25;;;;;;;;;;;21.40;90.70;;;;;;4997168;28;19912;-52
2022/07/14 02:32:09;;;;;;;;;;;21.40;90.60;;;;;;4991024;28;19935;-49
2022/07/14 02:34:54;;;;;;;;;;;21.40;90.50;;;;;;5014613;28;20351;-50
2022/07/14 02:37:38;;;;;;;;;;;21.40;90.60;;;;;;5016051;28;20427;-53
2022/07/14 02:40:22;;;;;;;;;;;21.30;90.70;;;;;;5005533;28;19916;-54
2022/07/14 02:43:07;;;;;;;;;;;21.20;90.80;;;;;;4983759;28;19924;-52
2022/07/14 02:45:51;;;;;;;;;;;21.30;90.80;;;;;;4995728;28;19917;-54
2022/07/14 02:48:36;;;;;;;;;;;21.10;90.90;;;;;;4996109;28;19929;-55
2022/07/14 02:51:21;;;;;;;;;;;21.10;91.10;;;;;;4995966;28;19925;-52
2022/07/14 02:54:05;;;;;;;;;;;21.00;91.20;;;;;;5011374;28;19968;-52
2022/07/14 02:56:49;;;;;;;;;;;20.90;91.20;;;;;;4976851;28;20285;-55
2022/07/14 02:59:33;;;;;;;;;;;20.70;91.80;;;;;;4995458;28;19968;-49
2022/07/14 03:02:17;;;;;;;;;;;20.50;92.00;;;;;;5000129;28;19980;-53
2022/07/14 03:05:02;;;;;;;;;;;20.40;92.40;;;;;;4995561;28;19919;-54
2022/07/14 03:07:46;;;;;;;;;;;20.50;92.20;;;;;;5007167;28;19921;-50
2022/07/14 03:10:30;;;;;;;;;;;20.30;92.70;;;;;;4998078;28;19924;-51
2022/07/14 03:13:14;;;;;;;;;;;20.40;92.40;;;;;;5001028;28;19920;-52
2022/07/14 03:15:59;;;;;;;;;;;20.40;92.20;;;;;;4995343;28;20012;-47
2022/07/14 03:18:43;;;;;;;;;;;20.40;92.00;;;;;;4991993;28;20004;-53
2022/07/14 03:21:27;;;;;;;;;;;20.40;92.40;;;;;;4997067;28;20421;-53
2022/07/14 03:24:12;;;;;;;;;;;20.40;92.10;;;;;;5013977;28;19968;-52
2022/07/14 03:26:56;;;;;;;;;;;20.50;92.00;;;;;;5009812;28;19928;-54
2022/07/14 03:29:41;;;;;;;;;;;20.50;92.00;;;;;;4995052;28;19916;-52
2022/07/14 03:32:25;;;;;;;;;;;20.30;92.20;;;;;;5003638;28;20355;-53
2022/07/14 03:35:09;;;;;;;;;;;20.20;92.40;;;;;;4998542;28;19971;-54
2022/07/14 03:37:54;;;;;;;;;;;20.10;92.50;;;;;;4997064;28;19917;-52
2022/07/14 03:40:39;;;;;;;;;;;20.00;92.60;;;;;;4996467;28;20659;-55
2022/07/14 03:43:23;;;;;;;;;;;20.00;92.80;;;;;;5007057;28;19976;-53
2022/07/14 03:46:07;;;;;;;;;;;19.90;92.80;;;;;;4996371;28;20046;-53
2022/07/14 03:48:51;;;;;;;;;;;19.90;92.90;;;;;;5013345;28;19928;-49
2022/07/14 03:51:40;;;;;;;;;;;19.80;93.20;;;;;;5003627;28;20396;-51
2022/07/14 03:54:24;;;;;;;;;;;19.90;92.80;;;;;;4995371;28;19960;-54
2022/07/14 03:57:08;;;;;;;;;;;19.70;93.30;;;;;;5009374;28;19962;-49
2022/07/14 03:59:52;;;;;;;;;;;19.60;93.50;;;;;;5004550;28;20288;-52
2022/07/14 04:02:36;;;;;;;;;;;19.70;93.40;;;;;;4994767;28;19957;-53
2022/07/14 04:05:21;;;;;;;;;;;19.70;93.30;;;;;;4999664;28;19969;-51
2022/07/14 04:08:05;;;;;;;;;;;19.50;93.80;;;;;;4995244;28;20407;-52
2022/07/14 04:10:49;;;;;;;;;;;19.60;93.60;;;;;;5000729;28;19924;-49
2022/07/14 04:13:34;;;;;;;;;;;19.60;93.80;;;;;;4987523;28;19976;-52
2022/07/14 04:16:18;;;;;;;;;;;19.60;93.90;;;;;;4995363;28;19920;-49
2022/07/14 04:19:02;;;;;;;;;;;19.60;94.10;;;;;;4995274;28;19937;-52
2022/07/14 04:21:46;;;;;;;;;;;19.60;94.10;;;;;;4994325;28;19917;-54
2022/07/14 04:24:30;;;;;;;;;;;19.40;94.40;;;;;;4995418;28;19941;-54
2022/07/14 04:27:15;;;;;;;;;;;19.40;94.70;;;;;;5001872;28;19924;-52
2022/07/14 04:29:59;;;;;;;;;;;19.40;94.60;;;;;;5012663;28;19943;-51
2022/07/14 04:32:43;;;;;;;;;;;19.20;94.90;;;;;;4994041;28;20473;-53
2022/07/14 04:35:27;;;;;;;;;;;19.20;94.80;;;;;;4995070;28;19932;-50
2022/07/14 04:38:11;;;;;;;;;;;19.20;94.90;;;;;;4999902;28;19924;-53
2022/07/14 04:40:56;;;;;;;;;;;19.30;94.50;;;;;;5013657;28;19956;-51
2022/07/14 04:43:40;;;;;;;;;;;19.40;94.60;;;;;;5005606;28;19976;-54
2022/07/14 04:46:24;;;;;;;;;;;19.30;94.60;;;;;;4994928;28;20277;-54
2022/07/14 04:52:11;;;;;;;;;;;19.20;94.60;;;;;;5005676;28;19936;-49
2022/07/14 04:54:56;;;;;;;;;;;19.30;94.60;;;;;;5016590;28;19952;-53
2022/07/14 04:57:40;;;;;;;;;;;19.40;94.50;;;;;;4999655;28;20376;-52
2022/07/14 05:00:25;;;;;;;;;;;19.40;93.60;;;;;;4996017;28;19959;-50
2022/07/14 05:03:09;;;;;;;;;;;19.20;93.40;;;;;;5014103;28;19990;-53
2022/07/14 05:05:53;;;;;;;;;;;18.60;93.40;;;;;;5013109;28;20301;-50
2022/07/14 05:08:37;;;;;;;;;;;18.40;93.70;;;;;;5012651;28;19917;-51
2022/07/14 05:11:21;;;;;;;;;;;18.40;93.80;;;;;;5003476;28;19921;-50
2022/07/14 05:14:06;;;;;;;;;;;18.40;93.70;;;;;;4993900;28;19929;-53
2022/07/14 05:16:50;;;;;;;;;;;18.40;93.40;;;;;;4990874;28;19956;-50
2022/07/14 05:19:34;;;;;;;;;;;18.30;93.70;;;;;;4987454;28;20388;-54
2022/07/14 05:22:18;;;;;;;;;;;18.40;93.40;;;;;;4983465;28;19964;-55
2022/07/14 05:25:06;;;;;;;;;;;18.40;93.20;;;;;;5000172;28;19956;-52
2022/07/14 05:27:51;;;;;;;;;;;18.70;92.90;;;;;;4999646;28;19912;-50
2022/07/14 05:30:35;;;;;;;;;;;18.70;92.70;;;;;;5001368;28;20388;-53
2022/07/14 05:33:19;;;;;;;;;;;18.90;92.60;;;;;;5005286;28;19960;-50
2022/07/14 05:36:03;;;;;;;;;;;19.00;92.30;;;;;;4993244;28;19924;-53
2022/07/14 05:38:47;;;;;;;;;;;18.70;92.80;;;;;;5003805;28;19927;-54
2022/07/14 05:41:32;;;;;;;;;;;18.70;93.00;;;;;;5013554;28;19920;-52
2022/07/14 05:44:16;;;;;;;;;;;18.50;92.90;;;;;;4994245;28;20016;-54
2022/07/14 05:47:00;;;;;;;;;;;18.40;93.20;;;;;;4992287;28;19944;-52
2022/07/14 05:49:44;;;;;;;;;;;18.20;93.60;;;;;;4973926;28;20410;-54
2022/07/14 05:52:30;;;;;;;;;;;18.10;93.90;;;;;;4978927;28;20129;-52
2022/07/14 05:55:15;;;;;;;;;;;18.10;93.60;;;;;;5012925;28;20345;-51
2022/07/14 05:57:59;;;;;;;;;;;18.30;93.60;;;;;;5006667;28;19972;-52
2022/07/14 06:00:43;;;;;;;;;;;18.40;93.30;;;;;;4993745;28;20416;-52
2022/07/14 06:03:27;;;;;;;;;;;18.50;93.20;;;;;;5002075;28;19928;-53
2022/07/14 06:06:11;;;;;;;;;;;18.60;92.70;;;;;;4984438;28;19920;-50
2022/07/14 06:08:56;;;;;;;;;;;18.70;92.70;;;;;;4993503;28;20028;-51
2022/07/14 06:11:41;;;;;;;;;;;18.70;92.80;;;;;;4995018;28;20356;-52
2022/07/14 06:14:25;;;;;;;;;;;18.80;92.60;;;;;;4978106;28;20049;-48
2022/07/14 06:17:09;;;;;;;;;;;18.80;92.40;;;;;;5008345;28;19932;-52
2022/07/14 06:19:53;;;;;;;;;;;18.70;92.70;;;;;;5000644;28;20141;-50
2022/07/14 06:22:38;;;;;;;;;;;18.80;92.60;;;;;;4986444;28;20388;-50
2022/07/14 06:25:22;;;;;;;;;;;18.90;92.00;;;;;;5003376;28;19924;-52
2022/07/14 06:28:06;;;;;;;;;;;18.80;92.10;;;;;;5012020;28;19916;-53
2022/07/14 06:30:50;;;;;;;;;;;18.80;92.40;;;;;;4982286;28;19964;-52
2022/07/14 06:33:35;;;;;;;;;;;18.90;92.20;;;;;;4995964;28;20007;-53
2022/07/14 06:36:20;;;;;;;;;;;19.00;92.00;;;;;;5007009;28;19920;-52
2022/07/14 06:39:03;;;;;;;;;;;18.90;91.90;;;;;;4992619;28;19917;-53
2022/07/14 06:41:48;;;;;;;;;;;18.80;92.10;;;;;;5000380;28;19920;-52
2022/07/14 06:44:32;;;;;;;;;;;19.00;91.90;;;;;;4994931;28;20416;-50
2022/07/14 06:47:16;;;;;;;;;;;19.10;92.00;;;;;;5001149;28;20281;-52
2022/07/14 06:50:00;;;;;;;;;;;19.10;91.90;;;;;;4992405;28;20332;-52
2022/07/14 06:52:45;;;;;;;;;;;19.10;91.90;;;;;;4992372;28;19922;-52
2022/07/14 06:55:29;;;;;;;;;;;19.10;91.90;;;;;;5011153;28;19927;-53
2022/07/14 06:58:13;;;;;;;;;;;19.10;91.90;;;;;;5014242;28;20360;-52
2022/07/14 07:00:57;;;;;;;;;;;19.20;91.80;;;;;;4996015;28;19921;-51
2022/07/14 07:03:42;;;;;;;;;;;19.30;91.70;;;;;;4996389;28;20312;-50
2022/07/14 07:06:44;;;;;;;;;;;19.40;91.60;;;;;;5015509;28;19926;-53
2022/07/14 07:09:28;;;;;;;;;;;19.40;91.70;;;;;;5001341;28;19921;-51
2022/07/14 07:12:13;;;;;;;;;;;19.50;91.60;;;;;;4998064;28;19952;-49
2022/07/14 07:14:57;;;;;;;;;;;19.40;91.90;;;;;;4994999;28;19912;-51
2022/07/14 07:17:41;;;;;;;;;;;19.60;91.20;;;;;;5008801;28;19921;-50
2022/07/14 07:20:26;;;;;;;;;;;19.60;91.40;;;;;;4994886;28;19965;-52
2022/07/14 07:23:10;;;;;;;;;;;19.60;91.30;;;;;;4996112;28;19920;-53
2022/07/14 07:25:54;;;;;;;;;;;19.50;91.60;;;;;;4996828;28;20285;-52
2022/07/14 07:28:38;;;;;;;;;;;19.50;91.40;;;;;;4990181;28;19964;-55
2022/07/14 07:31:23;;;;;;;;;;;19.60;91.50;;;;;;5014979;28;19960;-53
2022/07/14 07:34:07;;;;;;;;;;;19.60;91.30;;;;;;5010111;28;20070;-50
2022/07/14 07:36:51;;;;;;;;;;;19.20;91.20;;;;;;4995228;28;19916;-51
2022/07/14 07:39:36;;;;;;;;;;;19.20;91.40;;;;;;5006332;28;19963;-52
2022/07/14 07:42:21;;;;;;;;;;;19.30;91.60;;;;;;5010393;28;19936;-51
2022/07/14 07:45:05;;;;;;;;;;;19.40;90.90;;;;;;4998353;28;19920;-53
2022/07/14 07:47:51;;;;;;;;;;;19.70;91.00;;;;;;4996145;28;19928;-52
2022/07/14 07:50:35;;;;;;;;;;;19.60;91.00;;;;;;4995730;28;19912;-52
2022/07/14 07:53:19;;;;;;;;;;;19.90;90.80;;;;;;4999757;28;19976;-53
2022/07/14 07:56:04;;;;;;;;;;;20.10;90.50;;;;;;5007437;28;19964;-52
2022/07/14 07:58:48;;;;;;;;;;;20.30;90.30;;;;;;5000393;28;19916;-55
2022/07/14 08:01:32;;;;;;;;;;;20.40;89.00;;;;;;4997758;28;19986;-52
2022/07/14 08:04:17;;;;;;;;;;;20.10;89.90;;;;;;5008249;28;19916;-52
2022/07/14 08:07:01;;;;;;;;;;;20.30;89.80;;;;;;4990325;28;19976;-55
2022/07/14 08:09:45;;;;;;;;;;;20.50;88.90;;;;;;4995473;28;19960;-54
2022/07/14 08:12:29;;;;;;;;;;;20.70;88.70;;;;;;4994112;28;19941;-49
2022/07/14 08:15:14;;;;;;;;;;;20.90;87.30;;;;;;4990898;28;19928;-54
2022/07/14 08:17:59;;;;;;;;;;;20.80;86.30;;;;;;4995362;28;19956;-54
2022/07/14 08:20:43;;;;;;;;;;;20.50;88.00;;;;;;4991421;28;19960;-54
2022/07/14 08:23:27;;;;;;;;;;;20.40;88.80;;;;;;4994396;28;19917;-50
2022/07/14 08:26:11;;;;;;;;;;;20.50;89.20;;;;;;4995056;28;19964;-49
2022/07/14 08:28:56;;;;;;;;;;;20.40;89.00;;;;;;4993094;28;20033;-54
2022/07/14 08:31:40;;;;;;;;;;;20.50;88.10;;;;;;4987497;28;19921;-53
2022/07/14 08:34:24;;;;;;;;;;;20.50;88.40;;;;;;5006526;28;20005;-52
2022/07/14 08:37:09;;;;;;;;;;;20.50;88.50;;;;;;4999648;28;20012;-51
2022/07/14 08:39:53;;;;;;;;;;;20.50;88.30;;;;;;4989268;28;20631;-52
2022/07/14 08:42:38;;;;;;;;;;;20.50;87.70;;;;;;4992530;28;19920;-51
2022/07/14 08:45:29;;;;;;;;;;;20.70;87.30;;;;;;4993574;28;19977;-55
2022/07/14 08:48:14;;;;;;;;;;;20.80;87.20;;;;;;4993378;28;19959;-52
2022/07/14 08:50:58;;;;;;;;;;;21.00;86.30;;;;;;4993917;28;19912;-54
2022/07/14 08:53:44;;;;;;;;;;;20.80;86.50;;;;;;4995522;28;19933;-55
2022/07/14 08:56:30;;;;;;;;;;;20.50;87.70;;;;;;4991073;28;19913;-56
2022/07/14 08:59:14;;;;;;;;;;;20.70;87.60;;;;;;4994073;28;19920;-52
2022/07/14 09:01:59;;;;;;;;;;;21.00;86.70;;;;;;4992025;28;19921;-54
2022/07/14 09:04:44;;;;;;;;;;;21.10;85.80;;;;;;4992802;28;20320;-52
2022/07/14 09:07:30;;;;;;;;;;;21.40;85.00;;;;;;4985796;28;20372;-54
2022/07/14 09:10:15;;;;;;;;;;;21.80;83.50;;;;;;4993153;28;19917;-53
2022/07/14 09:13:10;;;;;;;;;;;22.00;83.00;;;;;;4991526;28;19940;-53
2022/07/14 09:16:12;;;;;;;;;;;22.00;83.60;;;;;;4993838;28;19912;-57
2022/07/14 09:19:04;;;;;;;;;;;22.10;83.30;;;;;;4993347;28;19916;-50
2022/07/14 09:21:53;;;;;;;;;;;22.10;82.60;;;;;;4992628;28;19928;-50
2022/07/14 09:24:37;;;;;;;;;;;21.80;82.60;;;;;;4993599;28;20000;-51
2022/07/14 09:27:22;;;;;;;;;;;21.60;83.70;;;;;;4988185;28;20048;-52
2022/07/14 09:30:07;;;;;;;;;;;21.80;82.80;;;;;;4990622;28;19917;-48
2022/07/14 09:32:56;;;;;;;;;;;22.00;81.70;;;;;;4992597;28;19956;-50
2022/07/14 09:35:41;;;;;;;;;;;22.00;81.80;;;;;;4990666;28;20629;-54
2022/07/14 09:38:25;;;;;;;;;;;22.10;82.20;;;;;;4983325;28;20016;-53
2022/07/14 09:41:09;;;;;;;;;;;21.90;82.50;;;;;;4996310;28;19952;-51
2022/07/14 09:44:06;;;;;;;;;;;22.10;82.10;;;;;;4993120;28;20285;-54
2022/07/14 09:46:54;;;;;;;;;;;22.30;81.90;;;;;;4996629;28;19918;-55
2022/07/14 09:49:40;;;;;;;;;;;22.00;81.90;;;;;;4989705;28;19924;-53
2022/07/14 09:52:29;;;;;;;;;;;22.20;82.00;;;;;;4988750;28;19956;-53
2022/07/14 09:55:20;;;;;;;;;;;22.30;81.90;;;;;;4998633;28;20497;-54
2022/07/14 09:58:04;;;;;;;;;;;22.50;82.00;;;;;;4988320;28;19924;-51
2022/07/14 10:00:54;;;;;;;;;;;22.90;80.50;;;;;;4991372;28;19972;-49
2022/07/14 10:03:40;;;;;;;;;;;23.20;79.60;;;;;;4992846;28;19940;-49
2022/07/14 10:06:27;;;;;;;;;;;23.30;79.30;;;;;;4991813;28;19921;-51
2022/07/14 10:09:12;;;;;;;;;;;23.60;79.30;;;;;;4987983;28;19956;-52
2022/07/14 10:11:58;;;;;;;;;;;23.50;79.20;;;;;;4988923;28;19959;-52
2022/07/14 10:14:43;;;;;;;;;;;23.50;79.50;;;;;;4987905;28;20392;-52
2022/07/14 10:17:35;;;;;;;;;;;23.60;79.20;;;;;;4991862;28;19913;-58
2022/07/14 10:20:19;;;;;;;;;;;23.50;78.60;;;;;;5011141;28;20288;-49
2022/07/14 10:23:04;;;;;;;;;;;23.20;79.90;;;;;;5011453;28;19956;-55
2022/07/14 10:25:50;;;;;;;;;;;23.20;79.80;;;;;;4993484;28;19955;-53
2022/07/14 10:28:34;;;;;;;;;;;23.40;78.80;;;;;;5010846;28;19999;-49
2022/07/14 10:31:18;;;;;;;;;;;23.70;78.70;;;;;;5016300;28;19927;-53
2022/07/14 10:34:08;;;;;;;;;;;23.50;78.10;;;;;;5009331;28;20420;-52
2022/07/14 10:36:56;;;;;;;;;;;23.80;77.60;;;;;;4996631;28;19913;-55
2022/07/14 10:39:59;;;;;;;;;;;23.70;77.80;;;;;;5009802;28;19920;-52
2022/07/14 10:42:52;;;;;;;;;;;23.70;77.60;;;;;;5000385;28;19920;-52
2022/07/14 10:45:45;;;;;;;;;;;23.40;77.90;;;;;;4994022;28;19920;-56
2022/07/14 10:48:33;;;;;;;;;;;23.30;78.40;;;;;;4996397;28;19913;-51
2022/07/14 10:51:19;;;;;;;;;;;23.40;79.00;;;;;;5009592;28;20004;-54
2022/07/14 10:54:06;;;;;;;;;;;23.70;78.80;;;;;;4996829;28;19980;-51
2022/07/14 10:57:06;;;;;;;;;;;24.00;78.00;;;;;;4999681;28;19920;-52
2022/07/14 10:59:50;;;;;;;;;;;24.10;77.80;;;;;;4997357;28;19932;-53
2022/07/14 11:02:36;;;;;;;;;;;24.30;76.70;;;;;;4996218;28;19925;-55
2022/07/14 11:05:21;;;;;;;;;;;24.40;77.10;;;;;;4990368;28;20016;-51
2022/07/14 11:08:09;;;;;;;;;;;24.30;76.80;;;;;;4998543;28;19917;-54
2022/07/14 11:10:53;;;;;;;;;;;24.10;78.00;;;;;;5009761;28;20320;-52
2022/07/14 11:13:56;;;;;;;;;;;24.20;76.80;;;;;;5007141;28;20280;-52
2022/07/14 11:16:47;;;;;;;;;;;24.30;77.10;;;;;;5015360;28;19917;-52
2022/07/14 11:19:38;;;;;;;;;;;24.20;76.70;;;;;;5013736;28;19932;-56
2022/07/14 11:22:22;;;;;;;;;;;24.20;77.50;;;;;;4994158;28;20423;-52
2022/07/14 11:25:06;;;;;;;;;;;24.10;77.20;;;;;;5001003;28;19921;-54
2022/07/14 11:27:51;;;;;;;;;;;23.90;77.40;;;;;;5015082;28;20573;-56
2022/07/14 11:33:30;;;;;;;;;;;23.80;78.30;;;;;;5115658;22;20019;-53
2022/07/14 11:36:18;;;;;;;;;;;24.00;77.80;;;;;;5045870;28;19934;-50
2022/07/14 11:39:29;;;;;;;;;;;24.40;77.10;;;;;;5047165;28;20276;-50
2022/07/14 11:42:14;;;;;;;;;;;24.60;76.20;;;;;;5032815;28;20765;-54
2022/07/14 11:44:58;;;;;;;;;;;24.80;75.50;;;;;;5019518;28;20391;-56
2022/07/14 11:47:43;;;;;;;;;;;24.90;75.80;;;;;;5014792;28;19971;-53
2022/07/14 11:50:28;;;;;;;;;;;25.20;75.90;;;;;;5024495;28;19921;-53
2022/07/14 11:53:13;;;;;;;;;;;25.00;76.10;;;;;;5019731;28;19992;-53
2022/07/14 11:55:58;;;;;;;;;;;24.80;76.20;;;;;;5033046;28;19936;-52
2022/07/14 11:58:43;;;;;;;;;;;24.60;77.10;;;;;;5033207;28;19916;-56
2022/07/14 12:01:31;;;;;;;;;;;24.40;77.40;;;;;;5035082;28;20015;-53
2022/07/14 12:04:17;;;;;;;;;;;24.20;77.70;;;;;;5033942;28;19970;-57
2022/07/14 12:07:01;;;;;;;;;;;24.10;78.00;;;;;;5034610;28;19919;-54
2022/07/14 12:09:45;;;;;;;;;;;24.00;78.30;;;;;;5035318;28;20442;-53
2022/07/14 12:12:38;;;;;;;;;;;24.00;78.80;;;;;;5034869;28;19959;-57
2022/07/14 12:15:23;;;;;;;;;;;23.90;79.00;;;;;;5015647;28;19912;-52
2022/07/14 12:18:09;;;;;;;;;;;24.10;79.40;;;;;;5029455;28;19916;-52
2022/07/14 12:20:53;;;;;;;;;;;24.30;79.00;;;;;;5034427;28;19923;-53
2022/07/14 12:23:50;;;;;;;;;;;24.50;78.50;;;;;;5035049;28;20435;-55
2022/07/14 12:26:34;;;;;;;;;;;24.80;77.80;;;;;;5033992;28;19928;-54
2022/07/14 12:29:18;;;;;;;;;;;25.00;77.40;;;;;;5020146;28;19920;-55
2022/07/14 12:32:03;;;;;;;;;;;25.20;76.80;;;;;;5034295;28;19935;-54
2022/07/14 12:34:47;;;;;;;;;;;25.30;76.70;;;;;;5034595;28;19919;-53
2022/07/14 12:37:31;;;;;;;;;;;25.30;76.70;;;;;;5033736;28;19959;-53
2022/07/14 12:40:16;;;;;;;;;;;25.20;76.90;;;;;;5033964;28;19916;-51
2022/07/14 12:43:00;;;;;;;;;;;24.80;78.40;;;;;;5034834;28;19915;-56
2022/07/14 12:46:04;;;;;;;;;;;24.60;77.80;;;;;;5033612;28;20579;-52
2022/07/14 12:48:48;;;;;;;;;;;24.70;77.70;;;;;;5033126;28;20398;-51
2022/07/14 12:51:33;;;;;;;;;;;24.90;77.60;;;;;;5034786;28;20023;-53
2022/07/14 12:54:19;;;;;;;;;;;24.90;77.10;;;;;;5033461;28;19947;-56
2022/07/14 12:57:04;;;;;;;;;;;24.90;77.10;;;;;;5033405;28;19947;-51
2022/07/14 12:59:48;;;;;;;;;;;24.90;77.30;;;;;;5033815;28;19920;-55
2022/07/14 13:02:32;;;;;;;;;;;24.80;77.60;;;;;;5034001;28;19912;-53
2022/07/14 13:05:16;;;;;;;;;;;25.10;77.50;;;;;;5033994;28;19996;-50
2022/07/14 13:08:00;;;;;;;;;;;25.30;77.60;;;;;;5032874;28;19916;-54
2022/07/14 13:10:57;;;;;;;;;;;25.60;77.00;;;;;;5033854;28;19935;-52
2022/07/14 13:13:42;;;;;;;;;;;25.80;76.70;;;;;;5033975;28;19955;-52
2022/07/14 13:16:30;;;;;;;;;;;25.60;75.80;;;;;;5033547;28;19915;-54
2022/07/14 13:19:14;;;;;;;;;;;25.20;76.70;;;;;;5033462;28;19916;-53
2022/07/14 13:21:59;;;;;;;;;;;24.90;77.30;;;;;;5033590;28;19995;-54
2022/07/14 13:24:44;;;;;;;;;;;24.60;77.50;;;;;;5033809;28;19996;-56
2022/07/14 13:27:28;;;;;;;;;;;24.30;78.20;;;;;;5032815;28;20425;-58
2022/07/14 13:30:12;;;;;;;;;;;24.10;78.60;;;;;;5018148;28;20073;-54
2022/07/14 13:32:57;;;;;;;;;;;23.80;78.80;;;;;;5032920;28;19943;-55
2022/07/14 13:35:41;;;;;;;;;;;23.80;78.70;;;;;;5029075;28;19916;-55
2022/07/14 13:38:25;;;;;;;;;;;24.00;78.30;;;;;;5032232;28;19923;-56
2022/07/14 13:41:10;;;;;;;;;;;24.10;77.90;;;;;;5033459;28;19995;-56
2022/07/14 13:43:58;;;;;;;;;;;24.10;77.60;;;;;;5030590;28;19912;-53
2022/07/14 13:46:43;;;;;;;;;;;24.30;77.10;;;;;;5032535;28;19916;-54
2022/07/14 13:49:27;;;;;;;;;;;24.10;77.00;;;;;;5033916;28;19916;-52
2022/07/14 13:52:11;;;;;;;;;;;24.10;77.00;;;;;;5032392;28;20386;-53
2022/07/14 13:54:55;;;;;;;;;;;24.20;76.50;;;;;;5032123;28;19920;-55
2022/07/14 13:57:40;;;;;;;;;;;24.30;76.40;;;;;;5031884;28;19960;-54
2022/07/14 14:00:24;;;;;;;;;;;24.60;76.50;;;;;;5033066;28;19943;-54
2022/07/14 14:03:24;;;;;;;;;;;25.00;74.90;;;;;;5031129;28;19960;-55
2022/07/14 14:06:14;;;;;;;;;;;25.10;73.60;;;;;;5030617;28;19924;-56
2022/07/14 14:08:58;;;;;;;;;;;25.30;73.60;;;;;;5032597;28;19928;-56
2022/07/14 14:11:43;;;;;;;;;;;25.60;73.20;;;;;;5031377;28;20537;-50
2022/07/14 14:14:28;;;;;;;;;;;25.80;72.70;;;;;;5030270;28;19947;-53
2022/07/14 14:17:13;;;;;;;;;;;25.90;72.10;;;;;;5030741;28;19928;-50
2022/07/14 14:19:57;;;;;;;;;;;25.90;72.20;;;;;;4997804;28;20000;-53
2022/07/14 14:22:41;;;;;;;;;;;26.00;72.90;;;;;;5014820;28;19916;-50
2022/07/14 14:25:25;;;;;;;;;;;26.60;71.20;;;;;;5031575;28;20475;-53
2022/07/14 14:28:11;;;;;;;;;;;27.30;69.90;;;;;;5031297;28;19974;-52
2022/07/14 14:30:55;;;;;;;;;;;27.50;70.00;;;;;;5031895;28;19997;-53
2022/07/14 14:33:40;;;;;;;;;;;27.60;69.80;;;;;;5032281;28;19959;-51
2022/07/14 14:36:24;;;;;;;;;;;27.20;70.00;;;;;;5031170;28;19920;-54
2022/07/14 14:39:08;;;;;;;;;;;27.10;69.80;;;;;;5032017;28;20411;-53
2022/07/14 14:41:52;;;;;;;;;;;27.10;70.10;;;;;;5037380;28;19924;-50
2022/07/14 14:44:37;;;;;;;;;;;27.00;69.60;;;;;;5031861;28;19920;-56
2022/07/14 14:47:21;;;;;;;;;;;26.70;70.20;;;;;;5023583;28;19948;-50
2022/07/14 14:50:06;;;;;;;;;;;26.70;70.00;;;;;;5036506;28;19959;-56
2022/07/14 14:52:51;;;;;;;;;;;26.80;70.20;;;;;;5037324;28;20391;-53
2022/07/14 14:55:35;;;;;;;;;;;27.30;69.20;;;;;;5033878;28;20307;-54
2022/07/14 14:58:20;;;;;;;;;;;27.70;67.80;;;;;;5032764;28;19982;-51
2022/07/14 15:01:05;;;;;;;;;;;27.70;66.70;;;;;;5031465;28;19924;-56
2022/07/14 15:03:49;;;;;;;;;;;27.70;66.80;;;;;;5032272;28;20391;-51
2022/07/14 15:06:33;;;;;;;;;;;27.20;67.90;;;;;;5017140;28;19924;-53
2022/07/14 15:09:18;;;;;;;;;;;26.70;68.80;;;;;;5047828;28;20359;-54
2022/07/14 15:12:02;;;;;;;;;;;26.70;69.10;;;;;;5052185;28;20419;-54
2022/07/14 15:14:47;;;;;;;;;;;26.90;68.30;;;;;;5047893;28;19916;-54
2022/07/14 15:17:31;;;;;;;;;;;26.60;69.10;;;;;;5034414;28;19990;-59
2022/07/14 15:20:16;;;;;;;;;;;26.90;68.70;;;;;;5035245;28;19955;-57
2022/07/14 15:23:00;;;;;;;;;;;27.00;68.90;;;;;;5034652;28;19912;-53
2022/07/14 15:25:44;;;;;;;;;;;27.50;67.30;;;;;;5034823;28;20312;-54
2022/07/14 15:28:28;;;;;;;;;;;27.90;68.00;;;;;;5034842;28;19958;-54
2022/07/14 15:31:15;;;;;;;;;;;28.40;66.50;;;;;;5034637;28;19974;-56
2022/07/14 15:33:59;;;;;;;;;;;27.80;65.90;;;;;;5034837;28;19928;-52
2022/07/14 15:36:44;;;;;;;;;;;27.30;66.20;;;;;;5034443;28;19959;-56
2022/07/14 15:42:32;;;;;;;;;;;26.20;67.80;;;;;;5034472;28;19916;-53
2022/07/14 15:45:17;;;;;;;;;;;25.90;68.20;;;;;;5028038;28;20649;-52
2022/07/14 15:48:01;;;;;;;;;;;25.50;67.90;;;;;;5035369;28;19963;-54
2022/07/14 15:50:46;;;;;;;;;;;25.30;67.70;;;;;;5035044;28;19916;-54
2022/07/14 15:53:30;;;;;;;;;;;25.30;67.10;;;;;;5019780;28;19993;-57
2022/07/14 15:56:15;;;;;;;;;;;25.40;66.30;;;;;;5033470;28;19936;-57
2022/07/14 15:58:59;;;;;;;;;;;25.30;64.70;;;;;;5034280;28;19979;-57
2022/07/14 16:01:43;;;;;;;;;;;25.30;64.80;;;;;;5019724;28;19919;-54
2022/07/14 16:04:29;;;;;;;;;;;25.40;63.70;;;;;;5034150;28;19935;-56
2022/07/14 16:07:13;;;;;;;;;;;24.90;64.40;;;;;;5033326;28;19927;-54
2022/07/14 16:09:57;;;;;;;;;;;24.90;63.80;;;;;;5034126;28;19943;-54
2022/07/14 16:12:41;;;;;;;;;;;25.00;62.70;;;;;;5019992;28;20012;-55